sensor_id;sensor_type;location;lat;lon;timestamp;P1;durP1;ratioP1;P2;durP2;ratioP2
41861;SDS011;27537;57.134;-2.136;2023-02-10T00:01:11;5.18;;;1.55;;
41861;SDS011;27537;57.134;-2.136;2023-02-10T00:03:42;7.78;;;2.20;;
41861;SDS011;27537;57.134;-2.136;2023-02-10T00:06:10;5.07;;;1.50;;
41861;SDS011;27537;57.134;-2.136;2023-02-10T00:08:38;7.47;;;1.55;;
41861;SDS011;27537;57.134;-2.136;2023-02-10T00:11:06;8.82;;;2.47;;
41861;SDS011;27537;57.134;-2.136;2023-02-10T00:13:36;8.00;;;1.70;;
41861;SDS011;27537;57.134;-2.136;2023-02-10T00:16:05;7.22;;;1.45;;
41861;SDS011;27537;57.134;-2.136;2023-02-10T00:18:33;3.35;;;1.38;;
41861;SDS011;27537;57.134;-2.136;2023-02-10T00:21:07;3.30;;;1.30;;
41861;SDS011;27537;57.134;-2.136;2023-02-10T00:23:37;6.72;;;1.85;;
41861;SDS011;27537;57.134;-2.136;2023-02-10T00:26:04;8.50;;;2.15;;
41861;SDS011;27537;57.134;-2.136;2023-02-10T00:28:33;9.57;;;2.80;;
41861;SDS011;27537;57.134;-2.136;2023-02-10T00:31:05;4.30;;;1.58;;
41861;SDS011;27537;57.134;-2.136;2023-02-10T00:33:34;6.75;;;1.63;;
41861;SDS011;27537;57.134;-2.136;2023-02-10T00:36:18;5.15;;;1.50;;
41861;SDS011;27537;57.134;-2.136;2023-02-10T00:38:45;2.50;;;1.20;;
41861;SDS011;27537;57.134;-2.136;2023-02-10T00:41:13;7.72;;;1.63;;
41861;SDS011;27537;57.134;-2.136;2023-02-10T00:43:41;6.65;;;1.30;;
41861;SDS011;27537;57.134;-2.136;2023-02-10T00:46:11;3.63;;;1.45;;
41861;SDS011;27537;57.134;-2.136;2023-02-10T00:48:41;4.60;;;1.55;;
41861;SDS011;27537;57.134;-2.136;2023-02-10T00:51:08;4.10;;;1.30;;
41861;SDS011;27537;57.134;-2.136;2023-02-10T00:53:35;5.97;;;1.73;;
41861;SDS011;27537;57.134;-2.136;2023-02-10T00:56:03;7.05;;;1.90;;
41861;SDS011;27537;57.134;-2.136;2023-02-10T00:58:31;6.13;;;1.50;;
41861;SDS011;27537;57.134;-2.136;2023-02-10T01:00:57;6.57;;;1.60;;
41861;SDS011;27537;57.134;-2.136;2023-02-10T01:03:24;7.60;;;2.10;;
41861;SDS011;27537;57.134;-2.136;2023-02-10T01:05:51;4.85;;;1.50;;
41861;SDS011;27537;57.134;-2.136;2023-02-10T01:08:18;4.15;;;1.45;;
41861;SDS011;27537;57.134;-2.136;2023-02-10T01:10:45;5.43;;;1.48;;
41861;SDS011;27537;57.134;-2.136;2023-02-10T01:13:12;3.30;;;1.20;;
41861;SDS011;27537;57.134;-2.136;2023-02-10T01:15:44;2.45;;;1.10;;
41861;SDS011;27537;57.134;-2.136;2023-02-10T01:18:13;4.63;;;1.60;;
41861;SDS011;27537;57.134;-2.136;2023-02-10T01:20:41;4.25;;;1.30;;
41861;SDS011;27537;57.134;-2.136;2023-02-10T01:23:09;4.63;;;1.42;;
41861;SDS011;27537;57.134;-2.136;2023-02-10T01:25:37;4.47;;;1.33;;
41861;SDS011;27537;57.134;-2.136;2023-02-10T01:28:04;4.55;;;1.30;;
41861;SDS011;27537;57.134;-2.136;2023-02-10T01:30:32;3.45;;;1.30;;
41861;SDS011;27537;57.134;-2.136;2023-02-10T01:32:59;3.83;;;1.30;;
41861;SDS011;27537;57.134;-2.136;2023-02-10T01:35:26;3.88;;;1.10;;
41861;SDS011;27537;57.134;-2.136;2023-02-10T01:37:53;1.90;;;1.10;;
41861;SDS011;27537;57.134;-2.136;2023-02-10T01:40:21;2.08;;;1.10;;
41861;SDS011;27537;57.134;-2.136;2023-02-10T01:42:49;3.60;;;1.15;;
41861;SDS011;27537;57.134;-2.136;2023-02-10T01:45:20;5.78;;;1.35;;
41861;SDS011;27537;57.134;-2.136;2023-02-10T01:48:00;3.22;;;1.30;;
41861;SDS011;27537;57.134;-2.136;2023-02-10T01:50:29;6.03;;;1.40;;
41861;SDS011;27537;57.134;-2.136;2023-02-10T01:53:01;3.88;;;1.30;;
41861;SDS011;27537;57.134;-2.136;2023-02-10T01:55:31;5.20;;;1.55;;
41861;SDS011;27537;57.134;-2.136;2023-02-10T01:58:05;3.25;;;1.33;;
41861;SDS011;27537;57.134;-2.136;2023-02-10T02:00:35;4.47;;;1.40;;
41861;SDS011;27537;57.134;-2.136;2023-02-10T02:03:02;3.97;;;1.30;;
41861;SDS011;27537;57.134;-2.136;2023-02-10T02:05:37;2.95;;;1.10;;
41861;SDS011;27537;57.134;-2.136;2023-02-10T02:08:16;2.65;;;1.10;;
41861;SDS011;27537;57.134;-2.136;2023-02-10T02:13:35;1.80;;;1.10;;
41861;SDS011;27537;57.134;-2.136;2023-02-10T02:24:22;4.18;;;1.40;;
41861;SDS011;27537;57.134;-2.136;2023-02-10T02:32:49;6.18;;;1.80;;
41861;SDS011;27537;57.134;-2.136;2023-02-10T02:35:24;4.22;;;1.50;;
41861;SDS011;27537;57.134;-2.136;2023-02-10T02:37:54;4.97;;;1.92;;
41861;SDS011;27537;57.134;-2.136;2023-02-10T02:40:22;5.80;;;1.60;;
41861;SDS011;27537;57.134;-2.136;2023-02-10T02:42:48;6.78;;;1.90;;
41861;SDS011;27537;57.134;-2.136;2023-02-10T02:45:20;6.88;;;1.83;;
41861;SDS011;27537;57.134;-2.136;2023-02-10T02:59:07;4.80;;;1.40;;
41861;SDS011;27537;57.134;-2.136;2023-02-10T03:01:38;5.65;;;1.40;;
41861;SDS011;27537;57.134;-2.136;2023-02-10T03:04:13;5.63;;;1.38;;
41861;SDS011;27537;57.134;-2.136;2023-02-10T03:06:43;3.08;;;1.35;;
41861;SDS011;27537;57.134;-2.136;2023-02-10T03:09:10;5.40;;;1.80;;
41861;SDS011;27537;57.134;-2.136;2023-02-10T03:11:37;6.75;;;1.45;;
41861;SDS011;27537;57.134;-2.136;2023-02-10T03:14:03;6.65;;;1.90;;
41861;SDS011;27537;57.134;-2.136;2023-02-10T03:16:30;2.65;;;1.30;;
41861;SDS011;27537;57.134;-2.136;2023-02-10T03:18:57;3.67;;;1.45;;
41861;SDS011;27537;57.134;-2.136;2023-02-10T03:21:24;2.90;;;1.48;;
41861;SDS011;27537;57.134;-2.136;2023-02-10T03:23:51;5.63;;;1.55;;
41861;SDS011;27537;57.134;-2.136;2023-02-10T03:26:18;3.90;;;1.20;;
41861;SDS011;27537;57.134;-2.136;2023-02-10T03:28:45;6.43;;;2.05;;
41861;SDS011;27537;57.134;-2.136;2023-02-10T03:31:12;6.65;;;1.67;;
41861;SDS011;27537;57.134;-2.136;2023-02-10T03:33:39;5.07;;;1.90;;
41861;SDS011;27537;57.134;-2.136;2023-02-10T03:36:06;4.55;;;1.42;;
41861;SDS011;27537;57.134;-2.136;2023-02-10T03:38:33;7.32;;;1.92;;
41861;SDS011;27537;57.134;-2.136;2023-02-10T03:40:59;7.13;;;1.88;;
41861;SDS011;27537;57.134;-2.136;2023-02-10T03:43:26;3.80;;;1.27;;
41861;SDS011;27537;57.134;-2.136;2023-02-10T03:45:53;7.93;;;1.48;;
41861;SDS011;27537;57.134;-2.136;2023-02-10T03:48:20;5.68;;;1.50;;
41861;SDS011;27537;57.134;-2.136;2023-02-10T03:50:48;5.43;;;1.48;;
41861;SDS011;27537;57.134;-2.136;2023-02-10T03:53:15;7.05;;;1.63;;
41861;SDS011;27537;57.134;-2.136;2023-02-10T03:55:41;3.35;;;1.48;;
41861;SDS011;27537;57.134;-2.136;2023-02-10T03:58:08;3.83;;;1.25;;
41861;SDS011;27537;57.134;-2.136;2023-02-10T04:00:35;5.00;;;1.40;;
41861;SDS011;27537;57.134;-2.136;2023-02-10T04:03:02;7.30;;;1.45;;
41861;SDS011;27537;57.134;-2.136;2023-02-10T04:05:29;3.13;;;1.40;;
41861;SDS011;27537;57.134;-2.136;2023-02-10T04:07:55;7.28;;;1.48;;
41861;SDS011;27537;57.134;-2.136;2023-02-10T04:10:22;3.45;;;1.40;;
41861;SDS011;27537;57.134;-2.136;2023-02-10T04:12:49;3.75;;;1.23;;
41861;SDS011;27537;57.134;-2.136;2023-02-10T04:15:16;4.60;;;1.30;;
41861;SDS011;27537;57.134;-2.136;2023-02-10T04:17:43;5.15;;;1.52;;
41861;SDS011;27537;57.134;-2.136;2023-02-10T04:20:10;3.00;;;1.20;;
41861;SDS011;27537;57.134;-2.136;2023-02-10T04:22:37;4.90;;;1.20;;
41861;SDS011;27537;57.134;-2.136;2023-02-10T04:25:05;3.83;;;1.40;;
41861;SDS011;27537;57.134;-2.136;2023-02-10T04:27:32;6.55;;;1.40;;
41861;SDS011;27537;57.134;-2.136;2023-02-10T04:29:59;4.20;;;1.40;;
41861;SDS011;27537;57.134;-2.136;2023-02-10T04:32:26;8.52;;;1.67;;
41861;SDS011;27537;57.134;-2.136;2023-02-10T04:34:52;6.25;;;1.52;;
41861;SDS011;27537;57.134;-2.136;2023-02-10T04:37:19;5.25;;;1.40;;
41861;SDS011;27537;57.134;-2.136;2023-02-10T04:39:46;8.13;;;1.95;;
41861;SDS011;27537;57.134;-2.136;2023-02-10T04:42:12;5.93;;;1.60;;
41861;SDS011;27537;57.134;-2.136;2023-02-10T04:44:39;5.38;;;1.50;;
41861;SDS011;27537;57.134;-2.136;2023-02-10T04:47:06;5.53;;;1.50;;
41861;SDS011;27537;57.134;-2.136;2023-02-10T04:49:33;5.05;;;1.65;;
41861;SDS011;27537;57.134;-2.136;2023-02-10T04:51:59;7.18;;;1.63;;
41861;SDS011;27537;57.134;-2.136;2023-02-10T04:54:26;4.60;;;1.40;;
41861;SDS011;27537;57.134;-2.136;2023-02-10T04:56:53;6.32;;;2.13;;
41861;SDS011;27537;57.134;-2.136;2023-02-10T04:59:20;6.97;;;1.70;;
41861;SDS011;27537;57.134;-2.136;2023-02-10T05:01:46;9.82;;;1.52;;
41861;SDS011;27537;57.134;-2.136;2023-02-10T05:04:13;7.63;;;1.50;;
41861;SDS011;27537;57.134;-2.136;2023-02-10T05:06:40;4.57;;;1.58;;
41861;SDS011;27537;57.134;-2.136;2023-02-10T05:09:07;6.60;;;1.75;;
41861;SDS011;27537;57.134;-2.136;2023-02-10T05:11:33;7.32;;;1.55;;
41861;SDS011;27537;57.134;-2.136;2023-02-10T05:14:00;10.52;;;2.28;;
41861;SDS011;27537;57.134;-2.136;2023-02-10T05:16:27;7.10;;;1.50;;
41861;SDS011;27537;57.134;-2.136;2023-02-10T05:18:54;5.07;;;1.40;;
41861;SDS011;27537;57.134;-2.136;2023-02-10T05:21:20;5.63;;;1.52;;
41861;SDS011;27537;57.134;-2.136;2023-02-10T05:23:47;9.63;;;2.38;;
41861;SDS011;27537;57.134;-2.136;2023-02-10T05:26:14;9.52;;;2.00;;
41861;SDS011;27537;57.134;-2.136;2023-02-10T05:28:41;4.03;;;1.35;;
41861;SDS011;27537;57.134;-2.136;2023-02-10T05:31:08;11.52;;;2.33;;
41861;SDS011;27537;57.134;-2.136;2023-02-10T05:33:35;7.85;;;1.60;;
41861;SDS011;27537;57.134;-2.136;2023-02-10T05:36:02;9.77;;;2.38;;
41861;SDS011;27537;57.134;-2.136;2023-02-10T05:38:29;7.50;;;2.75;;
41861;SDS011;27537;57.134;-2.136;2023-02-10T05:40:56;8.45;;;2.03;;
41861;SDS011;27537;57.134;-2.136;2023-02-10T05:43:22;7.45;;;2.22;;
41861;SDS011;27537;57.134;-2.136;2023-02-10T05:45:49;6.45;;;1.98;;
41861;SDS011;27537;57.134;-2.136;2023-02-10T05:48:17;11.70;;;3.03;;
41861;SDS011;27537;57.134;-2.136;2023-02-10T05:50:43;9.73;;;2.38;;
41861;SDS011;27537;57.134;-2.136;2023-02-10T05:53:10;9.45;;;1.77;;
41861;SDS011;27537;57.134;-2.136;2023-02-10T05:55:39;11.52;;;2.53;;
41861;SDS011;27537;57.134;-2.136;2023-02-10T05:58:06;9.00;;;1.92;;
41861;SDS011;27537;57.134;-2.136;2023-02-10T06:00:32;6.35;;;2.20;;
41861;SDS011;27537;57.134;-2.136;2023-02-10T06:02:59;11.80;;;2.47;;
41861;SDS011;27537;57.134;-2.136;2023-02-10T06:05:26;8.52;;;2.20;;
41861;SDS011;27537;57.134;-2.136;2023-02-10T06:07:53;8.40;;;2.10;;
41861;SDS011;27537;57.134;-2.136;2023-02-10T06:10:21;9.77;;;2.00;;
41861;SDS011;27537;57.134;-2.136;2023-02-10T06:12:48;12.32;;;2.58;;
41861;SDS011;27537;57.134;-2.136;2023-02-10T06:15:15;6.85;;;1.67;;
41861;SDS011;27537;57.134;-2.136;2023-02-10T06:17:43;12.90;;;2.25;;
41861;SDS011;27537;57.134;-2.136;2023-02-10T06:20:09;13.82;;;2.47;;
41861;SDS011;27537;57.134;-2.136;2023-02-10T06:22:36;8.63;;;2.00;;
41861;SDS011;27537;57.134;-2.136;2023-02-10T06:25:03;9.23;;;2.10;;
41861;SDS011;27537;57.134;-2.136;2023-02-10T06:27:36;11.50;;;2.60;;
41861;SDS011;27537;57.134;-2.136;2023-02-10T06:30:02;12.07;;;2.70;;
41861;SDS011;27537;57.134;-2.136;2023-02-10T06:32:29;12.40;;;2.40;;
41861;SDS011;27537;57.134;-2.136;2023-02-10T06:34:56;10.60;;;2.28;;
41861;SDS011;27537;57.134;-2.136;2023-02-10T06:37:23;12.80;;;2.42;;
41861;SDS011;27537;57.134;-2.136;2023-02-10T06:39:50;9.90;;;2.15;;
41861;SDS011;27537;57.134;-2.136;2023-02-10T06:42:17;8.95;;;2.15;;
41861;SDS011;27537;57.134;-2.136;2023-02-10T06:44:44;14.15;;;2.17;;
41861;SDS011;27537;57.134;-2.136;2023-02-10T06:47:10;12.02;;;2.08;;
41861;SDS011;27537;57.134;-2.136;2023-02-10T06:49:37;11.25;;;2.38;;
41861;SDS011;27537;57.134;-2.136;2023-02-10T06:52:04;6.97;;;2.00;;
41861;SDS011;27537;57.134;-2.136;2023-02-10T06:54:41;7.15;;;1.70;;
41861;SDS011;27537;57.134;-2.136;2023-02-10T06:57:08;12.73;;;2.15;;
41861;SDS011;27537;57.134;-2.136;2023-02-10T06:59:35;5.43;;;1.70;;
41861;SDS011;27537;57.134;-2.136;2023-02-10T07:02:02;10.18;;;2.08;;
41861;SDS011;27537;57.134;-2.136;2023-02-10T07:04:30;9.18;;;2.80;;
41861;SDS011;27537;57.134;-2.136;2023-02-10T07:06:58;6.03;;;1.90;;
41861;SDS011;27537;57.134;-2.136;2023-02-10T07:09:24;13.82;;;2.92;;
41861;SDS011;27537;57.134;-2.136;2023-02-10T07:11:51;6.80;;;1.85;;
41861;SDS011;27537;57.134;-2.136;2023-02-10T07:14:18;10.73;;;2.33;;
41861;SDS011;27537;57.134;-2.136;2023-02-10T07:16:45;6.63;;;1.90;;
41861;SDS011;27537;57.134;-2.136;2023-02-10T07:19:12;11.25;;;2.00;;
41861;SDS011;27537;57.134;-2.136;2023-02-10T07:21:39;9.27;;;2.15;;
41861;SDS011;27537;57.134;-2.136;2023-02-10T07:24:06;11.27;;;1.90;;
41861;SDS011;27537;57.134;-2.136;2023-02-10T07:26:32;5.57;;;1.83;;
41861;SDS011;27537;57.134;-2.136;2023-02-10T07:28:59;6.35;;;1.58;;
41861;SDS011;27537;57.134;-2.136;2023-02-10T07:31:26;5.57;;;1.90;;
41861;SDS011;27537;57.134;-2.136;2023-02-10T07:33:53;4.53;;;1.50;;
41861;SDS011;27537;57.134;-2.136;2023-02-10T07:36:20;5.60;;;2.25;;
41861;SDS011;27537;57.134;-2.136;2023-02-10T07:38:47;7.22;;;2.03;;
41861;SDS011;27537;57.134;-2.136;2023-02-10T07:41:14;6.15;;;1.90;;
41861;SDS011;27537;57.134;-2.136;2023-02-10T07:43:40;7.60;;;1.80;;
41861;SDS011;27537;57.134;-2.136;2023-02-10T07:46:07;4.35;;;1.60;;
41861;SDS011;27537;57.134;-2.136;2023-02-10T07:48:34;6.00;;;1.48;;
41861;SDS011;27537;57.134;-2.136;2023-02-10T07:51:01;9.90;;;1.90;;
41861;SDS011;27537;57.134;-2.136;2023-02-10T07:53:28;5.78;;;1.55;;
41861;SDS011;27537;57.134;-2.136;2023-02-10T07:55:57;5.65;;;1.52;;
41861;SDS011;27537;57.134;-2.136;2023-02-10T07:58:25;6.93;;;1.90;;
41861;SDS011;27537;57.134;-2.136;2023-02-10T08:00:51;7.45;;;2.10;;
41861;SDS011;27537;57.134;-2.136;2023-02-10T08:03:18;8.15;;;1.83;;
41861;SDS011;27537;57.134;-2.136;2023-02-10T08:05:45;6.15;;;2.38;;
41861;SDS011;27537;57.134;-2.136;2023-02-10T08:08:15;9.77;;;2.08;;
41861;SDS011;27537;57.134;-2.136;2023-02-10T08:10:41;9.88;;;2.65;;
41861;SDS011;27537;57.134;-2.136;2023-02-10T08:13:08;5.38;;;1.83;;
41861;SDS011;27537;57.134;-2.136;2023-02-10T08:15:35;8.38;;;2.28;;
41861;SDS011;27537;57.134;-2.136;2023-02-10T08:18:02;9.60;;;2.40;;
41861;SDS011;27537;57.134;-2.136;2023-02-10T08:20:29;8.02;;;2.15;;
41861;SDS011;27537;57.134;-2.136;2023-02-10T08:22:56;7.60;;;1.98;;
41861;SDS011;27537;57.134;-2.136;2023-02-10T08:25:23;11.43;;;3.13;;
41861;SDS011;27537;57.134;-2.136;2023-02-10T08:27:50;8.13;;;2.03;;
41861;SDS011;27537;57.134;-2.136;2023-02-10T08:30:17;7.97;;;2.10;;
41861;SDS011;27537;57.134;-2.136;2023-02-10T08:32:44;6.40;;;1.80;;
41861;SDS011;27537;57.134;-2.136;2023-02-10T08:35:14;5.22;;;1.95;;
41861;SDS011;27537;57.134;-2.136;2023-02-10T08:37:41;6.28;;;2.00;;
41861;SDS011;27537;57.134;-2.136;2023-02-10T08:40:08;9.60;;;2.25;;
41861;SDS011;27537;57.134;-2.136;2023-02-10T08:42:35;7.68;;;1.98;;
41861;SDS011;27537;57.134;-2.136;2023-02-10T08:45:02;7.88;;;2.10;;
41861;SDS011;27537;57.134;-2.136;2023-02-10T08:47:29;6.70;;;1.90;;
41861;SDS011;27537;57.134;-2.136;2023-02-10T08:49:56;4.15;;;1.52;;
41861;SDS011;27537;57.134;-2.136;2023-02-10T08:52:23;5.90;;;1.70;;
41861;SDS011;27537;57.134;-2.136;2023-02-10T08:54:49;4.20;;;1.48;;
41861;SDS011;27537;57.134;-2.136;2023-02-10T08:57:16;3.75;;;1.52;;
41861;SDS011;27537;57.134;-2.136;2023-02-10T08:59:43;6.88;;;1.88;;
41861;SDS011;27537;57.134;-2.136;2023-02-10T09:02:11;5.35;;;1.88;;
41861;SDS011;27537;57.134;-2.136;2023-02-10T09:04:38;6.00;;;2.58;;
41861;SDS011;27537;57.134;-2.136;2023-02-10T09:07:06;6.65;;;1.60;;
41861;SDS011;27537;57.134;-2.136;2023-02-10T09:09:36;6.95;;;1.80;;
41861;SDS011;27537;57.134;-2.136;2023-02-10T09:12:04;5.85;;;1.42;;
41861;SDS011;27537;57.134;-2.136;2023-02-10T09:14:31;4.47;;;1.52;;
41861;SDS011;27537;57.134;-2.136;2023-02-10T09:16:58;8.15;;;1.50;;
41861;SDS011;27537;57.134;-2.136;2023-02-10T09:19:24;3.63;;;1.60;;
41861;SDS011;27537;57.134;-2.136;2023-02-10T09:21:51;7.68;;;1.90;;
41861;SDS011;27537;57.134;-2.136;2023-02-10T09:24:18;8.05;;;1.92;;
41861;SDS011;27537;57.134;-2.136;2023-02-10T09:26:45;4.88;;;1.80;;
41861;SDS011;27537;57.134;-2.136;2023-02-10T09:29:11;5.55;;;1.75;;
41861;SDS011;27537;57.134;-2.136;2023-02-10T09:31:39;6.43;;;1.77;;
41861;SDS011;27537;57.134;-2.136;2023-02-10T09:34:06;4.05;;;1.50;;
41861;SDS011;27537;57.134;-2.136;2023-02-10T09:36:32;5.95;;;1.60;;
41861;SDS011;27537;57.134;-2.136;2023-02-10T09:38:59;6.00;;;1.80;;
41861;SDS011;27537;57.134;-2.136;2023-02-10T09:55:06;2.88;;;1.27;;
41861;SDS011;27537;57.134;-2.136;2023-02-10T09:57:41;5.15;;;1.70;;
41861;SDS011;27537;57.134;-2.136;2023-02-10T10:00:18;6.57;;;1.42;;
41861;SDS011;27537;57.134;-2.136;2023-02-10T10:02:52;5.15;;;1.70;;
41861;SDS011;27537;57.134;-2.136;2023-02-10T10:08:10;3.08;;;1.40;;
41861;SDS011;27537;57.134;-2.136;2023-02-10T10:10:44;3.30;;;1.50;;
41861;SDS011;27537;57.134;-2.136;2023-02-10T10:13:20;2.65;;;1.45;;
41861;SDS011;27537;57.134;-2.136;2023-02-10T10:21:04;4.30;;;1.42;;
41861;SDS011;27537;57.134;-2.136;2023-02-10T10:32:00;3.17;;;1.23;;
41861;SDS011;27537;57.134;-2.136;2023-02-10T10:34:39;3.05;;;1.10;;
41861;SDS011;27537;57.134;-2.136;2023-02-10T10:37:14;3.60;;;1.30;;
41861;SDS011;27537;57.134;-2.136;2023-02-10T10:39:44;3.47;;;1.23;;
41861;SDS011;27537;57.134;-2.136;2023-02-10T10:48:06;5.32;;;1.65;;
41861;SDS011;27537;57.134;-2.136;2023-02-10T10:50:48;4.85;;;1.63;;
41861;SDS011;27537;57.134;-2.136;2023-02-10T10:53:15;3.50;;;1.30;;
41861;SDS011;27537;57.134;-2.136;2023-02-10T10:55:46;2.22;;;1.10;;
41861;SDS011;27537;57.134;-2.136;2023-02-10T10:58:32;4.43;;;1.30;;
41861;SDS011;27537;57.134;-2.136;2023-02-10T11:01:03;3.83;;;1.17;;
41861;SDS011;27537;57.134;-2.136;2023-02-10T11:03:32;2.40;;;1.17;;
41861;SDS011;27537;57.134;-2.136;2023-02-10T11:08:52;7.63;;;1.60;;
41861;SDS011;27537;57.134;-2.136;2023-02-10T11:11:30;3.42;;;1.30;;
41861;SDS011;27537;57.134;-2.136;2023-02-10T11:16:55;3.20;;;1.30;;
41861;SDS011;27537;57.134;-2.136;2023-02-10T11:22:15;3.78;;;1.42;;
41861;SDS011;27537;57.134;-2.136;2023-02-10T11:24:52;6.32;;;1.27;;
41861;SDS011;27537;57.134;-2.136;2023-02-10T11:27:21;4.38;;;1.30;;
41861;SDS011;27537;57.134;-2.136;2023-02-10T11:29:50;3.42;;;1.42;;
41861;SDS011;27537;57.134;-2.136;2023-02-10T11:34:55;2.80;;;1.25;;
41861;SDS011;27537;57.134;-2.136;2023-02-10T11:37:27;3.08;;;1.13;;
41861;SDS011;27537;57.134;-2.136;2023-02-10T11:39:58;3.08;;;1.13;;
41861;SDS011;27537;57.134;-2.136;2023-02-10T11:42:28;4.68;;;1.40;;
41861;SDS011;27537;57.134;-2.136;2023-02-10T11:45:01;1.88;;;1.05;;
41861;SDS011;27537;57.134;-2.136;2023-02-10T11:47:29;5.30;;;1.40;;
41861;SDS011;27537;57.134;-2.136;2023-02-10T11:49:58;2.45;;;1.30;;
41861;SDS011;27537;57.134;-2.136;2023-02-10T11:52:26;3.28;;;1.30;;
41861;SDS011;27537;57.134;-2.136;2023-02-10T11:54:56;3.55;;;1.25;;
41861;SDS011;27537;57.134;-2.136;2023-02-10T12:05:55;2.63;;;1.20;;
41861;SDS011;27537;57.134;-2.136;2023-02-10T12:16:59;1.13;;;0.85;;
41861;SDS011;27537;57.134;-2.136;2023-02-10T12:19:45;1.70;;;0.90;;
41861;SDS011;27537;57.134;-2.136;2023-02-10T12:25:16;1.27;;;1.00;;
41861;SDS011;27537;57.134;-2.136;2023-02-10T12:34:25;3.28;;;1.08;;
41861;SDS011;27537;57.134;-2.136;2023-02-10T12:52:54;3.30;;;1.00;;
41861;SDS011;27537;57.134;-2.136;2023-02-10T12:55:33;2.92;;;0.90;;
41861;SDS011;27537;57.134;-2.136;2023-02-10T12:58:25;2.25;;;1.00;;
41861;SDS011;27537;57.134;-2.136;2023-02-10T13:01:05;1.48;;;0.90;;
41861;SDS011;27537;57.134;-2.136;2023-02-10T13:03:38;5.07;;;1.13;;
41861;SDS011;27537;57.134;-2.136;2023-02-10T13:06:25;1.58;;;0.90;;
41861;SDS011;27537;57.134;-2.136;2023-02-10T13:14:37;1.27;;;0.80;;
41861;SDS011;27537;57.134;-2.136;2023-02-10T13:17:08;1.90;;;0.95;;
41861;SDS011;27537;57.134;-2.136;2023-02-10T13:22:44;1.80;;;0.80;;
41861;SDS011;27537;57.134;-2.136;2023-02-10T13:28:08;3.25;;;0.90;;
41861;SDS011;27537;57.134;-2.136;2023-02-10T13:33:40;3.83;;;1.00;;
41861;SDS011;27537;57.134;-2.136;2023-02-10T13:36:15;1.85;;;0.90;;
41861;SDS011;27537;57.134;-2.136;2023-02-10T13:38:58;2.60;;;0.90;;
41861;SDS011;27537;57.134;-2.136;2023-02-10T13:41:48;4.28;;;1.20;;
41861;SDS011;27537;57.134;-2.136;2023-02-10T13:49:36;1.15;;;0.80;;
41861;SDS011;27537;57.134;-2.136;2023-02-10T13:52:27;0.75;;;0.70;;
41861;SDS011;27537;57.134;-2.136;2023-02-10T13:57:36;1.77;;;0.88;;
41861;SDS011;27537;57.134;-2.136;2023-02-10T14:00:11;2.55;;;0.90;;
41861;SDS011;27537;57.134;-2.136;2023-02-10T14:02:38;1.92;;;0.80;;
41861;SDS011;27537;57.134;-2.136;2023-02-10T14:05:20;3.42;;;0.88;;
41861;SDS011;27537;57.134;-2.136;2023-02-10T14:07:49;2.25;;;0.90;;
41861;SDS011;27537;57.134;-2.136;2023-02-10T14:12:57;1.50;;;0.80;;
41861;SDS011;27537;57.134;-2.136;2023-02-10T14:15:27;1.92;;;0.90;;
41861;SDS011;27537;57.134;-2.136;2023-02-10T14:18:20;2.70;;;0.93;;
41861;SDS011;27537;57.134;-2.136;2023-02-10T14:20:57;1.95;;;0.90;;
41861;SDS011;27537;57.134;-2.136;2023-02-10T14:23:37;2.90;;;0.85;;
41861;SDS011;27537;57.134;-2.136;2023-02-10T14:26:12;0.95;;;0.70;;
41861;SDS011;27537;57.134;-2.136;2023-02-10T14:28:42;1.15;;;0.82;;
41861;SDS011;27537;57.134;-2.136;2023-02-10T14:31:19;1.30;;;0.75;;
41861;SDS011;27537;57.134;-2.136;2023-02-10T14:33:52;1.88;;;0.80;;
41861;SDS011;27537;57.134;-2.136;2023-02-10T14:36:24;3.45;;;0.90;;
41861;SDS011;27537;57.134;-2.136;2023-02-10T14:38:53;1.55;;;0.80;;
41861;SDS011;27537;57.134;-2.136;2023-02-10T14:41:23;1.42;;;0.80;;
41861;SDS011;27537;57.134;-2.136;2023-02-10T14:43:52;2.95;;;1.00;;
41861;SDS011;27537;57.134;-2.136;2023-02-10T14:46:23;1.05;;;0.80;;
41861;SDS011;27537;57.134;-2.136;2023-02-10T14:48:55;0.80;;;0.80;;
41861;SDS011;27537;57.134;-2.136;2023-02-10T14:51:25;2.28;;;1.00;;
41861;SDS011;27537;57.134;-2.136;2023-02-10T14:53:54;1.95;;;0.80;;
41861;SDS011;27537;57.134;-2.136;2023-02-10T14:56:25;1.40;;;0.80;;
41861;SDS011;27537;57.134;-2.136;2023-02-10T14:58:54;1.77;;;0.98;;
41861;SDS011;27537;57.134;-2.136;2023-02-10T15:01:25;3.03;;;0.82;;
41861;SDS011;27537;57.134;-2.136;2023-02-10T15:03:55;2.13;;;0.85;;
41861;SDS011;27537;57.134;-2.136;2023-02-10T15:06:29;2.63;;;0.90;;
41861;SDS011;27537;57.134;-2.136;2023-02-10T15:09:02;4.22;;;1.10;;
41861;SDS011;27537;57.134;-2.136;2023-02-10T15:11:34;3.03;;;0.90;;
41861;SDS011;27537;57.134;-2.136;2023-02-10T15:14:29;4.97;;;1.02;;
41861;SDS011;27537;57.134;-2.136;2023-02-10T15:17:02;3.10;;;0.80;;
41861;SDS011;27537;57.134;-2.136;2023-02-10T15:19:33;1.25;;;0.98;;
41861;SDS011;27537;57.134;-2.136;2023-02-10T15:22:00;2.15;;;1.08;;
41861;SDS011;27537;57.134;-2.136;2023-02-10T15:24:30;1.30;;;0.75;;
41861;SDS011;27537;57.134;-2.136;2023-02-10T15:29:54;1.67;;;0.82;;
41861;SDS011;27537;57.134;-2.136;2023-02-10T15:32:32;2.80;;;0.90;;
41861;SDS011;27537;57.134;-2.136;2023-02-10T15:35:05;1.42;;;0.80;;
41861;SDS011;27537;57.134;-2.136;2023-02-10T15:37:32;5.00;;;1.20;;
41861;SDS011;27537;57.134;-2.136;2023-02-10T15:40:15;1.30;;;0.82;;
41861;SDS011;27537;57.134;-2.136;2023-02-10T15:45:31;3.80;;;0.90;;
41861;SDS011;27537;57.134;-2.136;2023-02-10T15:48:07;1.23;;;0.82;;
41861;SDS011;27537;57.134;-2.136;2023-02-10T15:50:35;2.15;;;0.90;;
41861;SDS011;27537;57.134;-2.136;2023-02-10T15:53:02;1.25;;;0.80;;
41861;SDS011;27537;57.134;-2.136;2023-02-10T15:55:36;1.95;;;0.80;;
41861;SDS011;27537;57.134;-2.136;2023-02-10T15:58:05;2.15;;;0.90;;
41861;SDS011;27537;57.134;-2.136;2023-02-10T16:00:33;1.75;;;0.95;;
41861;SDS011;27537;57.134;-2.136;2023-02-10T16:03:03;3.63;;;1.02;;
41861;SDS011;27537;57.134;-2.136;2023-02-10T16:05:31;0.70;;;0.70;;
41861;SDS011;27537;57.134;-2.136;2023-02-10T16:08:02;1.95;;;0.80;;
41861;SDS011;27537;57.134;-2.136;2023-02-10T16:10:39;1.30;;;0.88;;
41861;SDS011;27537;57.134;-2.136;2023-02-10T16:13:06;1.20;;;0.90;;
41861;SDS011;27537;57.134;-2.136;2023-02-10T16:15:33;1.77;;;0.90;;
41861;SDS011;27537;57.134;-2.136;2023-02-10T16:18:00;0.80;;;0.75;;
41861;SDS011;27537;57.134;-2.136;2023-02-10T16:20:30;1.02;;;0.70;;
41861;SDS011;27537;57.134;-2.136;2023-02-10T16:22:58;0.80;;;0.75;;
41861;SDS011;27537;57.134;-2.136;2023-02-10T16:25:31;0.93;;;0.80;;
41861;SDS011;27537;57.134;-2.136;2023-02-10T16:27:58;1.70;;;0.80;;
41861;SDS011;27537;57.134;-2.136;2023-02-10T16:30:26;1.90;;;0.85;;
41861;SDS011;27537;57.134;-2.136;2023-02-10T16:32:54;2.35;;;0.80;;
41861;SDS011;27537;57.134;-2.136;2023-02-10T16:35:22;1.02;;;0.82;;
41861;SDS011;27537;57.134;-2.136;2023-02-10T16:37:49;1.77;;;0.80;;
41861;SDS011;27537;57.134;-2.136;2023-02-10T16:40:25;2.72;;;1.00;;
41861;SDS011;27537;57.134;-2.136;2023-02-10T16:45:21;2.70;;;1.00;;
41861;SDS011;27537;57.134;-2.136;2023-02-10T16:47:49;2.05;;;1.08;;
41861;SDS011;27537;57.134;-2.136;2023-02-10T16:50:22;2.28;;;1.10;;
41861;SDS011;27537;57.134;-2.136;2023-02-10T16:52:54;1.50;;;0.98;;
41861;SDS011;27537;57.134;-2.136;2023-02-10T16:55:21;1.63;;;0.95;;
41861;SDS011;27537;57.134;-2.136;2023-02-10T16:57:48;2.05;;;0.90;;
41861;SDS011;27537;57.134;-2.136;2023-02-10T17:00:15;5.07;;;1.00;;
41861;SDS011;27537;57.134;-2.136;2023-02-10T17:02:44;2.78;;;1.00;;
41861;SDS011;27537;57.134;-2.136;2023-02-10T17:05:11;1.23;;;0.80;;
41861;SDS011;27537;57.134;-2.136;2023-02-10T17:07:38;2.72;;;1.00;;
41861;SDS011;27537;57.134;-2.136;2023-02-10T17:10:06;1.63;;;0.90;;
41861;SDS011;27537;57.134;-2.136;2023-02-10T17:12:38;2.03;;;1.05;;
41861;SDS011;27537;57.134;-2.136;2023-02-10T17:15:05;0.98;;;0.80;;
41861;SDS011;27537;57.134;-2.136;2023-02-10T17:17:32;1.48;;;0.77;;